M I D A S
Marine Information and Data Acquisition System
Tripno 2044 of the Zeeleeuw from 2011-02-21 07:16:07 to 2011-02-21 17:23:27
Back to CruiseResearch ActivitiesStationsMapUnderway DataData graphs

EquipmentUnitsComments
TimeDGPSUTC
LatitudeDGPSDM.mWGS84
LongitudeDGPSDM.mWGS84
SpeedMeteo Stationm/sRelative wind speed
DirectionMeteo StationdegRelative wind direction
TemperatureMeteo Stationdeg CelciusAir temperature
PressureMeteo StationPaAtmospheric pressure
HumidityMeteo Station%Relative humidity
Missing or incorrect values are displayed as -999
Metereological data collected by the RV Zeeleeuw from 2011-02-21 07:03:20 to 2011-02-21 18:21:32
                                                                                    Next 1000 lines
Time Latitude Longitude Speed Direction Temperature Pressure Humidity
2011-02-21 07:03:30 51°13.663 2°55.96 0.1 23 1.9 101590 40
2011-02-21 07:03:35 51°13.663 2°55.959 0.1 320 1.9 101590 40
2011-02-21 07:03:40 51°13.663 2°55.959 2.2 20 1.9 101590 41
2011-02-21 07:03:45 51°13.664 2°55.959 1.3 316 1.9 101590 41
2011-02-21 07:03:50 51°13.663 2°55.959 1.6 316 1.9 101590 41
2011-02-21 07:03:55 51°13.663 2°55.959 1.2 322 1.9 101590 41
2011-02-21 07:03:59 51°13.663 2°55.959 0.5 322 1.9 101590 41
2011-02-21 07:04:05 51°13.663 2°55.959 0.5 322 1.9 101590 41
2011-02-21 07:04:10 51°13.663 2°55.959 0.5 322 1.9 101590 41
2011-02-21 07:04:15 51°13.663 2°55.959 0.5 322 1.9 101590 41
2011-02-21 07:04:20 51°13.663 2°55.959 0.5 322 1.9 101590 41
2011-02-21 07:04:25 51°13.663 2°55.959 0.5 322 1.9 101590 41
2011-02-21 07:04:30 51°13.663 2°55.959 -999 -999 -999 -999 -999
2011-02-21 07:04:35 51°13.663 2°55.959 -999 -999 -999 -999 -999
2011-02-21 07:04:40 51°13.663 2°55.959 -999 -999 -999 -999 -999
2011-02-21 07:04:45 51°13.663 2°55.959 0.2 327 -999 -999 -999
2011-02-21 07:04:50 51°13.663 2°55.959 1.2 320 -999 -999 -999
2011-02-21 07:04:55 51°13.663 2°55.959 0.1 329 -999 -999 -999
2011-02-21 07:05:00 51°13.662 2°55.959 0.1 324 -999 -999 -999
2011-02-21 07:05:05 51°13.662 2°55.959 -999 319 -999 -999 -999
2011-02-21 07:05:10 51°13.663 2°55.959 0.1 322 1.8 -999 29
2011-02-21 07:05:15 51°13.662 2°55.959 1.4 328 1.8 -999 29
2011-02-21 07:05:20 51°13.662 2°55.959 2.3 323 1.8 -999 42
2011-02-21 07:05:25 51°13.662 2°55.959 1.2 322 1.8 -999 42
2011-02-21 07:05:30 51°13.662 2°55.959 0.5 315 1.8 101590 41
2011-02-21 07:05:35 51°13.663 2°55.959 0.1 320 1.8 101590 41
2011-02-21 07:05:40 51°13.662 2°55.959 0.1 27 1.8 101590 42
2011-02-21 07:05:45 51°13.662 2°55.959 2.1 316 1.8 101590 42
2011-02-21 07:05:50 51°13.663 2°55.959 2.2 24 1.8 101590 41
2011-02-21 07:05:54 51°13.663 2°55.959 0.1 39 1.8 101590 41
2011-02-21 07:06:00 51°13.662 2°55.959 1.1 317 1.8 101580 42
2011-02-21 07:06:05 51°13.662 2°55.959 0.2 319 1.8 101580 42
2011-02-21 07:06:10 51°13.662 2°55.959 0.8 317 1.8 101590 41
2011-02-21 07:06:14 51°13.662 2°55.959 0.1 31 1.8 101590 41
2011-02-21 07:06:19 51°13.662 2°55.959 0.1 21 1.8 101580 41
2011-02-21 07:06:25 51°13.662 2°55.959 2.6 39 1.8 101580 41
2011-02-21 07:06:30 51°13.662 2°55.959 2.6 20 1.8 101590 40
2011-02-21 07:06:34 51°13.662 2°55.959 0.5 317 1.8 101590 40
2011-02-21 07:06:40 51°13.662 2°55.959 1.9 20 1.8 101590 41
2011-02-21 07:06:45 51°13.662 2°55.959 0.2 323 1.8 101590 41
2011-02-21 07:06:50 51°13.662 2°55.959 0.1 25 1.8 101590 40
2011-02-21 07:06:54 51°13.662 2°55.959 0.1 323 1.8 101590 40
2011-02-21 07:07:00 51°13.662 2°55.96 0.1 27 1.8 101590 42
2011-02-21 07:07:05 51°13.662 2°55.96 1.5 320 1.8 101590 42
2011-02-21 07:07:10 51°13.662 2°55.96 1.5 317 1.8 101590 41
2011-02-21 07:07:15 51°13.662 2°55.96 2.2 30 1.8 101590 41
2011-02-21 07:07:20 51°13.662 2°55.96 2.4 317 1.8 101590 41
2011-02-21 07:07:25 51°13.662 2°55.96 0.3 324 1.8 101590 41
2011-02-21 07:07:30 51°13.662 2°55.96 0.2 316 1.8 101590 41
2011-02-21 07:07:35 51°13.662 2°55.96 0.1 332 1.8 101590 41
2011-02-21 07:07:40 51°13.662 2°55.96 0.1 324 1.8 101580 41
2011-02-21 07:07:45 51°13.662 2°55.961 -999 328 1.8 101580 41
2011-02-21 07:07:50 51°13.662 2°55.961 -999 327 1.8 101590 42
2011-02-21 07:07:55 51°13.662 2°55.961 0.1 29 1.8 101590 42
2011-02-21 07:08:00 51°13.662 2°55.961 0.1 323 1.8 101590 41
2011-02-21 07:08:05 51°13.662 2°55.961 0.1 319 1.8 101590 41
2011-02-21 07:08:10 51°13.662 2°55.96 1.3 316 1.8 101590 41
2011-02-21 07:08:15 51°13.662 2°55.96 0.9 31 1.8 101590 41
2011-02-21 07:08:21 51°13.662 2°55.96 0.3 26 1.8 101580 41
2011-02-21 07:08:25 51°13.662 2°55.96 0.1 34 1.8 101580 41
2011-02-21 07:08:30 51°13.662 2°55.96 0.5 17 1.8 101590 40
2011-02-21 07:08:35 51°13.662 2°55.96 2 316 1.8 101590 40
2011-02-21 07:08:41 51°13.662 2°55.96 3.4 23 1.8 101590 41
2011-02-21 07:08:46 51°13.662 2°55.96 0.3 320 1.8 101590 41
2011-02-21 07:08:51 51°13.662 2°55.96 2.6 318 1.8 101590 41
2011-02-21 07:08:55 51°13.662 2°55.96 0.7 324 1.8 101590 41
2011-02-21 07:09:00 51°13.663 2°55.96 1.5 326 1.8 101590 41
2011-02-21 07:09:06 51°13.662 2°55.96 2.3 325 1.8 101590 41
2011-02-21 07:09:11 51°13.662 2°55.961 1.3 321 1.8 101590 40
2011-02-21 07:09:15 51°13.662 2°55.961 0.6 320 1.8 101590 40
2011-02-21 07:09:20 51°13.662 2°55.961 0.3 316 1.8 101590 42
2011-02-21 07:09:26 51°13.662 2°55.961 0.1 317 1.8 101590 42
2011-02-21 07:09:31 51°13.662 2°55.961 0.1 329 1.8 101580 41
2011-02-21 07:09:35 51°13.662 2°55.961 2.9 323 1.8 101580 41
2011-02-21 07:09:40 51°13.663 2°55.96 2.2 321 1.8 101590 41
2011-02-21 07:09:45 51°13.662 2°55.96 2.3 319 1.8 101590 41
2011-02-21 07:09:51 51°13.662 2°55.961 1.3 316 1.8 101590 42
2011-02-21 07:09:55 51°13.662 2°55.96 2.8 320 1.8 101590 42
2011-02-21 07:10:00 51°13.662 2°55.96 1.6 26 1.8 101590 42
2011-02-21 07:10:05 51°13.662 2°55.96 2.6 315 1.8 101590 42
2011-02-21 07:10:10 51°13.662 2°55.96 2.7 316 1.8 101590 39
2011-02-21 07:10:15 51°13.662 2°55.96 1.3 319 1.8 101590 39
2011-02-21 07:10:19 51°13.662 2°55.961 2.5 325 1.7 101580 41
2011-02-21 07:10:25 51°13.662 2°55.96 1.9 330 1.7 101580 41
2011-02-21 07:10:30 51°13.661 2°55.96 0.8 326 1.7 101590 40
2011-02-21 07:10:35 51°13.662 2°55.96 0.4 320 1.7 101590 40
2011-02-21 07:10:41 51°13.662 2°55.961 0.8 321 1.7 101590 39
2011-02-21 07:10:46 51°13.662 2°55.961 0.2 329 1.7 101590 39
2011-02-21 07:10:51 51°13.662 2°55.961 0.1 324 1.7 101590 41
2011-02-21 07:10:55 51°13.662 2°55.961 0.1 34 1.7 101590 41
2011-02-21 07:11:00 51°13.662 2°55.96 0.1 27 1.7 101590 41
2011-02-21 07:11:06 51°13.662 2°55.961 0.1 35 1.7 101590 41
2011-02-21 07:11:10 51°13.662 2°55.961 0.1 326 1.7 101580 41
2011-02-21 07:11:15 51°13.662 2°55.96 0.1 34 1.7 101580 41
2011-02-21 07:11:20 51°13.662 2°55.96 0.1 323 1.7 101590 41
2011-02-21 07:11:26 51°13.662 2°55.96 0.9 321 1.7 101590 41
2011-02-21 07:11:31 51°13.662 2°55.96 1.3 321 1.7 101590 41
2011-02-21 07:11:35 51°13.662 2°55.96 0.3 36 1.7 101590 41
2011-02-21 07:11:40 51°13.662 2°55.96 2.1 319 1.7 101590 41
2011-02-21 07:11:45 51°13.662 2°55.96 0.8 30 1.7 101590 41
2011-02-21 07:11:51 51°13.662 2°55.961 0.2 318 1.7 101580 39
2011-02-21 07:11:55 51°13.662 2°55.961 2.5 323 1.7 101580 39
2011-02-21 07:12:00 51°13.662 2°55.961 2.1 16 1.7 101590 42
2011-02-21 07:12:05 51°13.662 2°55.96 1.2 320 1.7 101590 42
2011-02-21 07:12:11 51°13.662 2°55.96 0.9 317 1.7 101590 40
2011-02-21 07:12:15 51°13.661 2°55.96 3.1 325 1.7 101590 40
2011-02-21 07:12:21 51°13.661 2°55.96 3.4 323 1.7 101590 41
2011-02-21 07:12:25 51°13.661 2°55.96 2.2 321 1.7 101590 41
2011-02-21 07:12:30 51°13.661 2°55.96 2.9 320 1.7 101590 39
2011-02-21 07:12:35 51°13.661 2°55.96 3.1 39 1.7 101590 39
2011-02-21 07:12:41 51°13.661 2°55.96 3.6 315 1.7 101590 40
2011-02-21 07:12:45 51°13.661 2°55.96 3.4 35 1.7 101590 40
2011-02-21 07:12:50 51°13.661 2°55.96 1.3 23 1.7 101580 41
2011-02-21 07:12:55 51°13.661 2°55.96 0.2 323 1.7 101580 41
2011-02-21 07:13:00 51°13.662 2°55.96 0.1 321 1.7 101590 42
2011-02-21 07:13:05 51°13.662 2°55.96 1.7 320 1.7 101590 42
2011-02-21 07:13:10 51°13.662 2°55.96 2.1 317 1.7 101590 41
2011-02-21 07:13:15 51°13.662 2°55.96 1.7 32 1.7 101590 41
2011-02-21 07:13:19 51°13.662 2°55.96 1.5 27 1.7 101590 41
2011-02-21 07:13:24 51°13.662 2°55.959 0.2 320 1.7 101590 41
2011-02-21 07:13:29 51°13.662 2°55.959 0.1 321 1.7 101590 41
2011-02-21 07:13:33 51°13.662 2°55.959 -999 319 1.7 101590 41
2011-02-21 07:13:38 51°13.662 2°55.959 -999 323 1.7 101590 39
2011-02-21 07:13:43 51°13.663 2°55.959 0.9 325 1.7 101590 39
2011-02-21 07:13:47 51°13.663 2°55.959 1.6 318 1.7 101590 41
2011-02-21 07:13:53 51°13.663 2°55.96 1 325 1.7 101590 41
2011-02-21 07:13:58 51°13.663 2°55.96 0.4 326 1.7 101590 41
2011-02-21 07:14:03 51°13.663 2°55.959 0.1 319 1.7 101590 41
2011-02-21 07:14:07 51°13.663 2°55.959 0.1 316 1.7 101590 41
2011-02-21 07:14:12 51°13.662 2°55.96 0.1 39 1.7 101590 41
2011-02-21 07:14:17 51°13.662 2°55.96 0.1 320 1.7 101590 41
2011-02-21 07:14:22 51°13.662 2°55.959 0.1 319 1.7 101590 41
2011-02-21 07:14:27 51°13.662 2°55.96 0.1 325 1.7 101590 40
2011-02-21 07:14:32 51°13.662 2°55.96 0.2 323 1.7 101590 40
2011-02-21 07:14:37 51°13.662 2°55.96 1.6 320 1.7 101590 41
2011-02-21 07:14:42 51°13.662 2°55.959 0.1 316 1.7 101590 41
2011-02-21 07:14:47 51°13.662 2°55.959 0.1 21 1.7 101590 40
2011-02-21 07:14:52 51°13.662 2°55.959 -999 320 1.7 101590 40
2011-02-21 07:14:57 51°13.661 2°55.959 -999 325 1.7 101590 41
2011-02-21 07:15:02 51°13.661 2°55.96 -999 317 1.7 101590 41
2011-02-21 07:15:07 51°13.662 2°55.96 -999 323 1.7 101590 41
2011-02-21 07:15:12 51°13.662 2°55.96 -999 34 1.7 101590 41
2011-02-21 07:15:18 51°13.661 2°55.96 -999 22 1.7 101590 41
2011-02-21 07:15:23 51°13.661 2°55.96 -999 320 1.7 101590 41
2011-02-21 07:15:29 51°13.661 2°55.959 -999 316 1.7 101590 41
2011-02-21 07:15:35 51°13.661 2°55.959 0.4 36 1.7 101590 41
2011-02-21 07:15:40 51°13.661 2°55.959 1.5 24 1.7 101590 41
2011-02-21 07:15:46 51°13.661 2°55.959 1.3 39 1.7 101590 41
2011-02-21 07:15:51 51°13.661 2°55.959 1.1 316 1.7 101590 42
2011-02-21 07:15:55 51°13.661 2°55.959 0.1 34 1.7 101590 42
2011-02-21 07:16:00 51°13.661 2°55.959 0.1 25 1.7 101590 41
2011-02-21 07:16:06 51°13.661 2°55.959 1.8 34 1.7 101590 41
2011-02-21 07:16:11 51°13.661 2°55.959 1.1 315 1.7 101590 41
2011-02-21 07:16:15 51°13.661 2°55.959 0.1 37 1.7 101590 41
2011-02-21 07:16:20 51°13.661 2°55.958 0.1 319 1.7 101590 41
2011-02-21 07:16:25 51°13.661 2°55.959 0.1 323 1.7 101590 41
2011-02-21 07:16:30 51°13.661 2°55.96 0.1 318 1.7 101590 41
2011-02-21 07:16:35 51°13.661 2°55.96 0.1 320 1.7 101590 41
2011-02-21 07:16:40 51°13.661 2°55.96 0.1 321 1.7 101590 41
2011-02-21 07:16:45 51°13.661 2°55.96 0.2 320 1.7 101590 41
2011-02-21 07:16:50 51°13.661 2°55.96 0.1 323 1.7 101590 41
2011-02-21 07:16:55 51°13.661 2°55.96 1.1 325 1.7 101590 41
2011-02-21 07:17:00 51°13.661 2°55.96 0.3 326 1.7 101590 41
2011-02-21 07:17:05 51°13.661 2°55.96 0.2 328 1.7 101590 41
2011-02-21 07:17:10 51°13.661 2°55.96 0.1 316 1.7 101590 39
2011-02-21 07:17:15 51°13.661 2°55.96 0.1 323 1.7 101590 39
2011-02-21 07:17:20 51°13.661 2°55.96 -999 323 1.7 101590 41
2011-02-21 07:17:25 51°13.661 2°55.96 -999 329 1.7 101590 41
2011-02-21 07:17:30 51°13.661 2°55.96 0.1 324 1.7 101590 41
2011-02-21 07:17:35 51°13.66 2°55.96 0.1 330 1.7 101590 41
2011-02-21 07:17:41 51°13.66 2°55.96 0.1 333 1.7 101590 41
2011-02-21 07:17:46 51°13.66 2°55.96 1.7 328 1.7 101590 41
2011-02-21 07:17:51 51°13.66 2°55.96 0.6 331 1.8 101590 41
2011-02-21 07:17:55 51°13.66 2°55.96 0.1 337 1.8 101590 41
2011-02-21 07:18:00 51°13.66 2°55.959 0.1 339 1.7 101590 41
2011-02-21 07:18:06 51°13.66 2°55.958 0.2 336 1.7 101590 41
2011-02-21 07:18:11 51°13.661 2°55.955 0.1 333 1.7 101590 41
2011-02-21 07:18:15 51°13.662 2°55.953 0.1 342 1.7 101590 41
2011-02-21 07:18:20 51°13.663 2°55.949 0.1 333 1.7 101590 41
2011-02-21 07:18:25 51°13.664 2°55.944 -999 330 1.7 101590 41
2011-02-21 07:18:31 51°13.666 2°55.937 -999 317 1.7 101590 41
2011-02-21 07:18:35 51°13.667 2°55.932 -999 354 1.7 101590 41
2011-02-21 07:18:40 51°13.669 2°55.926 -999 338 1.7 101590 41
2011-02-21 07:18:45 51°13.671 2°55.919 -999 333 1.7 101590 41
2011-02-21 07:18:51 51°13.673 2°55.909 -999 358 1.7 101590 41
2011-02-21 07:18:55 51°13.674 2°55.903 -999 337 1.7 101590 41
2011-02-21 07:19:00 51°13.676 2°55.894 -999 330 1.7 101590 41
2011-02-21 07:19:05 51°13.678 2°55.886 -999 345 1.7 101590 41
2011-02-21 07:19:10 51°13.679 2°55.878 -999 345 1.7 101590 41
2011-02-21 07:19:15 51°13.681 2°55.869 -999 349 1.7 101590 41
2011-02-21 07:19:21 51°13.683 2°55.859 -999 357 1.7 101590 41
2011-02-21 07:19:26 51°13.684 2°55.851 -999 322 1.7 101590 41
2011-02-21 07:19:30 51°13.685 2°55.844 -999 335 1.7 101590 41
2011-02-21 07:19:35 51°13.687 2°55.836 -999 318 1.7 101590 41
2011-02-21 07:19:40 51°13.688 2°55.828 -999 318 1.7 101590 41
2011-02-21 07:19:46 51°13.689 2°55.818 -999 349 1.7 101590 41
2011-02-21 07:19:51 51°13.691 2°55.809 -999 347 1.7 101590 40
2011-02-21 07:19:55 51°13.691 2°55.802 -999 349 1.7 101590 40
2011-02-21 07:20:01 51°13.692 2°55.793 -999 337 1.7 101590 41
2011-02-21 07:20:06 51°13.692 2°55.785 -999 346 1.7 101590 41
2011-02-21 07:20:10 51°13.692 2°55.778 -999 346 1.7 101590 41
2011-02-21 07:20:15 51°13.691 2°55.77 -999 353 1.7 101590 41
2011-02-21 07:20:20 51°13.691 2°55.763 -999 354 1.7 101590 41
2011-02-21 07:20:26 51°13.69 2°55.755 -999 359 1.7 101590 41
2011-02-21 07:20:31 51°13.689 2°55.749 -999 1 1.7 101590 41
2011-02-21 07:20:35 51°13.689 2°55.745 0.1 3 1.7 101590 41
2011-02-21 07:20:40 51°13.688 2°55.741 1.8 1 1.7 101580 41
2011-02-21 07:20:45 51°13.688 2°55.739 2.2 357 1.7 101580 41
2011-02-21 07:20:50 51°13.688 2°55.737 1.7 355 1.7 101580 41
2011-02-21 07:20:55 51°13.688 2°55.736 1.3 2 1.7 101580 41
2011-02-21 07:20:59 51°13.689 2°55.736 1.6 1 1.7 101580 40
2011-02-21 07:21:04 51°13.689 2°55.736 1 3 1.7 101580 40
2011-02-21 07:21:09 51°13.69 2°55.736 0.9 360 1.7 101580 41
2011-02-21 07:21:14 51°13.691 2°55.736 2.2 7 1.7 101580 41
2011-02-21 07:21:19 51°13.692 2°55.737 2.5 1 1.7 101580 42
2011-02-21 07:21:23 51°13.693 2°55.737 3.4 6 1.7 101580 42
2011-02-21 07:21:28 51°13.695 2°55.737 4.2 4 1.8 101580 41
2011-02-21 07:21:33 51°13.696 2°55.738 3.4 5 1.8 101580 41
2011-02-21 07:21:38 51°13.698 2°55.738 2.5 8 1.7 101580 40
2011-02-21 07:21:43 51°13.7 2°55.739 1.4 8 1.7 101580 40
2011-02-21 07:21:47 51°13.701 2°55.739 1.2 12 1.7 101580 42
2011-02-21 07:21:53 51°13.704 2°55.74 1.2 18 1.7 101580 42
2011-02-21 07:21:59 51°13.707 2°55.74 1.1 20 1.7 101580 41
2011-02-21 07:22:04 51°13.709 2°55.741 1.2 10 1.7 101580 41
2011-02-21 07:22:10 51°13.712 2°55.741 0.8 13 1.7 101580 40
2011-02-21 07:22:15 51°13.715 2°55.741 0.6 15 1.7 101580 40
2011-02-21 07:22:20 51°13.719 2°55.74 0.3 24 1.7 101580 42
2011-02-21 07:22:26 51°13.723 2°55.739 1 28 1.7 101580 42
2011-02-21 07:22:31 51°13.727 2°55.738 1.8 27 1.7 101580 40
2011-02-21 07:22:35 51°13.73 2°55.736 1.2 30 1.7 101580 40
2011-02-21 07:22:40 51°13.735 2°55.734 0.9 28 1.7 101580 41
2011-02-21 07:22:45 51°13.739 2°55.73 0.1 35 1.7 101580 41
2011-02-21 07:22:50 51°13.743 2°55.725 0.1 38 1.6 101580 42
2011-02-21 07:22:55 51°13.748 2°55.72 -999 43 1.6 101580 42
2011-02-21 07:22:59 51°13.752 2°55.715 -999 39 1.7 101580 41
2011-02-21 07:23:04 51°13.757 2°55.707 -999 24 1.7 101580 41
2011-02-21 07:23:09 51°13.763 2°55.699 -999 24 1.6 101580 41
2011-02-21 07:23:14 51°13.769 2°55.692 -999 27 1.6 101580 41
2011-02-21 07:23:19 51°13.775 2°55.683 -999 27 1.6 101580 41
2011-02-21 07:23:24 51°13.782 2°55.675 -999 28 1.6 101580 41
2011-02-21 07:23:29 51°13.789 2°55.667 -999 28 1.6 101580 41
2011-02-21 07:23:34 51°13.797 2°55.659 -999 21 1.6 101580 41
2011-02-21 07:23:39 51°13.805 2°55.651 -999 18 1.6 101590 41
2011-02-21 07:23:43 51°13.812 2°55.645 -999 2 1.6 101590 41
2011-02-21 07:23:48 51°13.821 2°55.637 -999 4 1.6 101590 41
2011-02-21 07:23:54 51°13.832 2°55.627 -999 18 1.6 101590 41
2011-02-21 07:23:59 51°13.842 2°55.62 -999 10 1.6 101590 41
2011-02-21 07:24:03 51°13.85 2°55.613 -999 2 1.6 101590 41
2011-02-21 07:24:08 51°13.861 2°55.604 -999 7 1.6 101590 42
2011-02-21 07:24:13 51°13.872 2°55.596 -999 11 1.6 101590 42
2011-02-21 07:24:18 51°13.883 2°55.588 -999 11 1.6 101590 42
2011-02-21 07:24:23 51°13.895 2°55.579 -999 352 1.6 101590 42
2011-02-21 07:24:28 51°13.906 2°55.571 -999 352 1.6 101580 41
2011-02-21 07:24:34 51°13.921 2°55.56 0.1 4 1.6 101580 41
2011-02-21 07:24:39 51°13.932 2°55.551 0.1 1 1.6 101590 41
2011-02-21 07:24:45 51°13.947 2°55.54 1.1 14 1.6 101590 41
2011-02-21 07:24:50 51°13.959 2°55.531 0.8 21 1.6 101580 42
2011-02-21 07:24:55 51°13.97 2°55.522 0.5 7 1.6 101580 42
2011-02-21 07:25:00 51°13.983 2°55.513 0.2 10 1.6 101580 42
2011-02-21 07:25:06 51°13.998 2°55.502 0.1 360 1.6 101580 42
2011-02-21 07:25:10 51°14.008 2°55.494 0.1 355 1.6 101580 41
2011-02-21 07:25:15 51°14.021 2°55.486 0.1 359 1.6 101580 41
2011-02-21 07:25:19 51°14.031 2°55.48 0.1 350 1.6 101580 42
2011-02-21 07:25:25 51°14.047 2°55.47 -999 8 1.6 101580 42
2011-02-21 07:25:30 51°14.06 2°55.461 -999 7 1.7 101580 42
2011-02-21 07:25:35 51°14.073 2°55.452 0.9 1 1.7 101580 42
2011-02-21 07:25:40 51°14.087 2°55.444 1.8 359 1.7 101580 42
2011-02-21 07:25:45 51°14.1 2°55.433 1.9 356 1.7 101580 42
2011-02-21 07:25:50 51°14.114 2°55.424 1 360 1.7 101580 42
2011-02-21 07:25:55 51°14.127 2°55.414 0.3 2 1.7 101580 42
2011-02-21 07:26:00 51°14.14 2°55.403 0.4 356 1.7 101580 41
2011-02-21 07:26:06 51°14.157 2°55.391 0.7 -999 1.7 101580 41
2011-02-21 07:26:10 51°14.167 2°55.382 1.5 2 1.7 101580 42
2011-02-21 07:26:15 51°14.181 2°55.371 1.8 358 1.7 101580 42
2011-02-21 07:26:21 51°14.197 2°55.357 1.4 357 1.7 101580 43
2011-02-21 07:26:25 51°14.208 2°55.347 0.2 359 1.7 101580 43
2011-02-21 07:26:30 51°14.222 2°55.335 0.2 357 1.7 101580 43
2011-02-21 07:26:35 51°14.235 2°55.322 0.1 357 1.7 101580 43
2011-02-21 07:26:41 51°14.251 2°55.306 2.1 359 1.7 101580 42
2011-02-21 07:26:46 51°14.264 2°55.293 1.3 359 1.7 101580 42
2011-02-21 07:26:51 51°14.278 2°55.279 2.4 356 1.6 101580 42
2011-02-21 07:26:55 51°14.288 2°55.268 0.9 1 1.6 101580 42
2011-02-21 07:27:00 51°14.302 2°55.254 1 360 1.7 101580 42
2011-02-21 07:27:05 51°14.316 2°55.239 2.4 353 1.7 101580 42
2011-02-21 07:27:11 51°14.333 2°55.223 2.9 -999 1.7 101580 42
2011-02-21 07:27:15 51°14.344 2°55.211 1.7 9 1.7 101580 42
2011-02-21 07:27:20 51°14.358 2°55.196 1.5 4 1.6 101580 41
2011-02-21 07:27:25 51°14.372 2°55.182 1.4 9 1.6 101580 41
2011-02-21 07:27:30 51°14.387 2°55.168 1.4 6 1.6 101580 41
2011-02-21 07:27:35 51°14.401 2°55.153 2.9 358 1.6 101580 41
2011-02-21 07:27:39 51°14.412 2°55.141 2.5 356 1.6 101580 42
2011-02-21 07:27:44 51°14.427 2°55.126 2.6 3 1.6 101580 42
2011-02-21 07:27:49 51°14.442 2°55.111 2.2 7 1.6 101570 41
2011-02-21 07:27:54 51°14.455 2°55.094 0.8 4 1.6 101570 41
2011-02-21 07:27:59 51°14.469 2°55.077 2.9 7 1.6 101580 43
2011-02-21 07:28:03 51°14.481 2°55.064 1 1 1.6 101580 43
2011-02-21 07:28:07 51°14.492 2°55.05 2.3 -999 1.6 101580 42
2011-02-21 07:28:13 51°14.509 2°55.031 2.3 2 1.6 101580 42
2011-02-21 07:28:18 51°14.524 2°55.014 2.4 -999 1.6 101570 41
2011-02-21 07:28:22 51°14.535 2°55 2.5 360 1.6 101570 41
2011-02-21 07:28:27 51°14.549 2°54.982 2.8 2 1.6 101580 40
2011-02-21 07:28:31 51°14.56 2°54.966 2.4 359 1.6 101580 40
2011-02-21 07:28:37 51°14.576 2°54.942 2.3 358 1.6 101570 43
2011-02-21 07:28:42 51°14.59 2°54.922 2.3 2 1.6 101570 43
2011-02-21 07:28:47 51°14.604 2°54.902 3.5 358 1.6 101580 43
2011-02-21 07:28:52 51°14.618 2°54.882 4.1 360 1.6 101580 43
2011-02-21 07:28:57 51°14.631 2°54.862 3.8 4 1.6 101560 41
2011-02-21 07:29:02 51°14.646 2°54.843 2.4 6 1.6 101560 41
2011-02-21 07:29:07 51°14.66 2°54.824 2.8 3 1.6 101570 42
2011-02-21 07:29:12 51°14.674 2°54.805 3 5 1.6 101570 42
2011-02-21 07:29:17 51°14.688 2°54.786 3.2 4 1.6 101570 43
2011-02-21 07:29:22 51°14.703 2°54.767 2.9 5 1.6 101570 43
2011-02-21 07:29:27 51°14.717 2°54.748 3 3 1.6 101560 43
2011-02-21 07:29:32 51°14.731 2°54.728 2.6 8 1.6 101560 43
2011-02-21 07:29:37 51°14.745 2°54.708 2.1 -999 1.6 101560 41
2011-02-21 07:29:42 51°14.759 2°54.69 3.8 1 1.6 101560 41
2011-02-21 07:29:47 51°14.774 2°54.673 3 4 1.6 101560 41
2011-02-21 07:29:52 51°14.789 2°54.656 4.1 7 1.6 101560 41
2011-02-21 07:29:57 51°14.804 2°54.64 3.7 2 1.6 101560 41
2011-02-21 07:30:02 51°14.82 2°54.625 4.7 4 1.6 101560 41
2011-02-21 07:30:07 51°14.835 2°54.611 4.9 4 1.6 101570 43
2011-02-21 07:30:12 51°14.852 2°54.597 4.4 5 1.6 101570 43
2011-02-21 07:30:17 51°14.868 2°54.584 4.6 3 1.6 101570 43
2011-02-21 07:30:22 51°14.885 2°54.572 4.9 2 1.6 101570 43
2011-02-21 07:30:27 51°14.901 2°54.56 4.4 1 1.6 101550 41
2011-02-21 07:30:32 51°14.917 2°54.549 4.5 1 1.6 101550 41
2011-02-21 07:30:37 51°14.933 2°54.537 5.1 2 1.6 101560 41
2011-02-21 07:30:42 51°14.949 2°54.525 4.7 4 1.6 101560 41
2011-02-21 07:30:47 51°14.966 2°54.513 4.4 5 1.6 101550 43
2011-02-21 07:30:52 51°14.982 2°54.501 5.4 6 1.6 101550 43
2011-02-21 07:30:57 51°14.998 2°54.489 5.1 6 1.6 101550 41
2011-02-21 07:31:02 51°15.015 2°54.476 5.2 6 1.6 101550 41
2011-02-21 07:31:07 51°15.03 2°54.463 5.1 6 1.6 101550 41
2011-02-21 07:31:12 51°15.046 2°54.45 5.6 7 1.6 101550 41
2011-02-21 07:31:17 51°15.061 2°54.436 4.3 8 1.6 101560 43
2011-02-21 07:31:22 51°15.077 2°54.423 4.5 8 1.6 101560 43
2011-02-21 07:31:27 51°15.093 2°54.41 4 4 1.6 101570 41
2011-02-21 07:31:32 51°15.109 2°54.398 5.7 4 1.6 101570 41
2011-02-21 07:31:37 51°15.125 2°54.387 5 5 1.6 101560 41
2011-02-21 07:31:42 51°15.141 2°54.379 5.4 3 1.6 101560 41
2011-02-21 07:31:47 51°15.158 2°54.371 4.3 5 1.6 101570 42
2011-02-21 07:31:52 51°15.174 2°54.365 5.2 3 1.6 101570 42
2011-02-21 07:31:57 51°15.191 2°54.36 5 3 1.6 101570 42
2011-02-21 07:32:02 51°15.208 2°54.356 5.6 3 1.6 101570 42
2011-02-21 07:32:07 51°15.225 2°54.351 6.3 2 1.6 101570 43
2011-02-21 07:32:12 51°15.242 2°54.348 6.9 1 1.6 101570 43
2011-02-21 07:32:17 51°15.258 2°54.345 6.6 1 1.6 101560 43
2011-02-21 07:32:22 51°15.275 2°54.343 7 2 1.6 101560 43
2011-02-21 07:32:27 51°15.292 2°54.34 6.1 3 1.6 101560 43
2011-02-21 07:32:32 51°15.309 2°54.338 7.1 1 1.6 101560 43
2011-02-21 07:32:37 51°15.326 2°54.336 8.2 357 1.6 101560 43
2011-02-21 07:32:42 51°15.342 2°54.334 7.3 359 1.6 101560 43
2011-02-21 07:32:47 51°15.359 2°54.333 8.4 359 1.7 101570 43
2011-02-21 07:32:52 51°15.376 2°54.331 9.2 1 1.7 101570 43
2011-02-21 07:32:57 51°15.393 2°54.328 9.1 1 1.7 101570 43
2011-02-21 07:33:02 51°15.41 2°54.325 7.2 1 1.7 101570 43
2011-02-21 07:33:07 51°15.427 2°54.323 7.2 1 1.7 101570 40
2011-02-21 07:33:12 51°15.445 2°54.318 7.7 360 1.7 101570 40
2011-02-21 07:33:17 51°15.462 2°54.313 6.3 359 1.6 101560 43
2011-02-21 07:33:22 51°15.479 2°54.307 6.7 358 1.6 101560 43
2011-02-21 07:33:27 51°15.496 2°54.3 6.7 358 1.6 101560 43
2011-02-21 07:33:31 51°15.51 2°54.294 6.4 4 1.6 101560 43
2011-02-21 07:33:37 51°15.53 2°54.285 5.5 4 1.7 101570 43
2011-02-21 07:33:42 51°15.547 2°54.278 7.8 358 1.7 101570 43
2011-02-21 07:33:47 51°15.564 2°54.27 7.1 1 1.7 101570 42
2011-02-21 07:33:52 51°15.582 2°54.264 6.5 359 1.7 101570 42
2011-02-21 07:33:57 51°15.599 2°54.258 6.1 4 1.7 101570 42
2011-02-21 07:34:02 51°15.617 2°54.253 8 355 1.7 101570 42
2011-02-21 07:34:07 51°15.634 2°54.249 7.8 354 1.7 101570 42
2011-02-21 07:34:12 51°15.652 2°54.245 9 355 1.7 101570 42
2011-02-21 07:34:17 51°15.669 2°54.243 9.4 354 1.7 101560 42
2011-02-21 07:34:22 51°15.687 2°54.24 9.6 357 1.7 101560 42
2011-02-21 07:34:27 51°15.705 2°54.237 9.8 358 1.7 101570 43
2011-02-21 07:34:32 51°15.722 2°54.234 7.7 357 1.7 101570 43
2011-02-21 07:34:37 51°15.739 2°54.231 7.5 359 1.7 101560 42
2011-02-21 07:34:42 51°15.757 2°54.228 8.6 359 1.7 101560 42
2011-02-21 07:34:47 51°15.775 2°54.224 7.8 3 1.7 101570 43
2011-02-21 07:34:52 51°15.792 2°54.22 6.4 359 1.7 101570 43
2011-02-21 07:34:57 51°15.81 2°54.215 7.1 357 1.7 101560 43
2011-02-21 07:35:02 51°15.827 2°54.21 8.7 355 1.7 101560 43
2011-02-21 07:35:07 51°15.845 2°54.205 7.3 355 1.7 101570 43
2011-02-21 07:35:12 51°15.863 2°54.2 7.4 2 1.7 101570 43
2011-02-21 07:35:17 51°15.88 2°54.195 7.8 1 1.7 101560 41
2011-02-21 07:35:22 51°15.898 2°54.19 7.1 -999 1.7 101560 41
2011-02-21 07:35:27 51°15.915 2°54.185 8.2 359 1.7 101570 43
2011-02-21 07:35:32 51°15.933 2°54.181 8.3 359 1.7 101570 43
2011-02-21 07:35:37 51°15.951 2°54.178 6.7 359 1.7 101570 43
2011-02-21 07:35:42 51°15.968 2°54.174 6.9 355 1.7 101570 43
2011-02-21 07:35:47 51°15.986 2°54.171 7.1 352 1.7 101560 41
2011-02-21 07:35:52 51°16.004 2°54.169 7.6 359 1.7 101560 41
2011-02-21 07:35:57 51°16.021 2°54.165 9.4 355 1.7 101560 42
2011-02-21 07:36:02 51°16.038 2°54.162 8 355 1.7 101560 42
2011-02-21 07:36:07 51°16.056 2°54.159 9.2 357 1.7 101570 42
2011-02-21 07:36:12 51°16.074 2°54.155 8.7 358 1.7 101570 42
2011-02-21 07:36:17 51°16.092 2°54.151 8.1 358 1.7 101570 43
2011-02-21 07:36:22 51°16.109 2°54.147 7.5 359 1.7 101570 43
2011-02-21 07:36:27 51°16.127 2°54.143 6.7 1 1.7 101560 43
2011-02-21 07:36:32 51°16.144 2°54.139 7.4 359 1.7 101560 43
2011-02-21 07:36:37 51°16.162 2°54.135 9.6 356 1.7 101570 43
2011-02-21 07:36:42 51°16.179 2°54.132 7.5 359 1.7 101570 43
2011-02-21 07:36:47 51°16.197 2°54.129 8.5 358 1.7 101570 41
2011-02-21 07:36:52 51°16.215 2°54.126 8 357 1.7 101570 41
2011-02-21 07:36:57 51°16.231 2°54.123 7.7 355 1.7 101580 43
2011-02-21 07:37:02 51°16.247 2°54.123 8.9 359 1.7 101580 43
2011-02-21 07:37:07 51°16.26 2°54.125 9.9 354 1.7 101570 41
2011-02-21 07:37:12 51°16.272 2°54.131 7.3 356 1.7 101570 41
2011-02-21 07:37:17 51°16.282 2°54.139 7.9 356 1.7 101570 42
2011-02-21 07:37:22 51°16.29 2°54.147 9.6 353 1.7 101570 42
2011-02-21 07:37:27 51°16.297 2°54.156 8.8 351 1.7 101570 42
2011-02-21 07:37:32 51°16.302 2°54.165 8.5 347 1.7 101570 42
2011-02-21 07:37:37 51°16.306 2°54.174 8.7 346 1.7 101570 43
2011-02-21 07:37:42 51°16.309 2°54.184 8.6 344 1.7 101570 43
2011-02-21 07:37:47 51°16.311 2°54.193 7.8 341 1.7 101560 43
2011-02-21 07:37:52 51°16.312 2°54.202 8 339 1.7 101560 43
2011-02-21 07:37:57 51°16.313 2°54.21 8.9 336 1.8 101570 43
2011-02-21 07:38:02 51°16.312 2°54.218 7.6 333 1.8 101570 43
2011-02-21 07:38:07 51°16.311 2°54.225 8.4 331 1.7 101570 43
2011-02-21 07:38:12 51°16.31 2°54.232 8 327 1.7 101570 43
2011-02-21 07:38:17 51°16.307 2°54.238 7.9 328 1.8 101570 43
2011-02-21 07:38:22 51°16.305 2°54.244 7.2 322 1.8 101570 43
2011-02-21 07:38:27 51°16.302 2°54.249 8.3 319 1.8 101580 41
2011-02-21 07:38:32 51°16.299 2°54.253 7.6 35 1.8 101580 41
2011-02-21 07:38:37 51°16.296 2°54.257 7.6 19 1.8 101580 42
2011-02-21 07:38:42 51°16.292 2°54.26 7.9 34 1.8 101580 42
2011-02-21 07:38:47 51°16.289 2°54.262 7.2 316 1.8 101580 42
2011-02-21 07:38:52 51°16.287 2°54.264 7 35 1.8 101580 42
2011-02-21 07:38:57 51°16.284 2°54.265 6.6 21 1.7 101580 43
2011-02-21 07:39:02 51°16.282 2°54.265 5.1 36 1.7 101580 43
2011-02-21 07:39:07 51°16.279 2°54.265 5.8 23 1.7 101570 42
2011-02-21 07:39:12 51°16.277 2°54.264 5.3 237 1.7 101570 42
2011-02-21 07:39:17 51°16.276 2°54.263 5 19 1.7 101590 43
2011-02-21 07:39:22 51°16.274 2°54.26 5.9 236 1.7 101590 43
2011-02-21 07:39:27 51°16.273 2°54.258 5.8 22 1.7 101590 41
2011-02-21 07:39:32 51°16.272 2°54.256 5.3 241 1.7 101590 41
2011-02-21 07:39:37 51°16.272 2°54.253 6.3 25 1.8 101590 42
2011-02-21 07:39:42 51°16.271 2°54.25 5 245 1.8 101590 42
2011-02-21 07:39:47 51°16.27 2°54.248 6.1 25 1.8 101590 43
2011-02-21 07:39:52 51°16.269 2°54.245 6.3 245 1.8 101590 43
2011-02-21 07:39:57 51°16.268 2°54.242 5 20 1.8 101590 43
2011-02-21 07:40:02 51°16.267 2°54.239 5.9 250 1.8 101590 43
2011-02-21 07:40:07 51°16.266 2°54.236 6.5 245 1.8 101590 43
2011-02-21 07:40:12 51°16.265 2°54.233 6.4 248 1.8 101590 43
2011-02-21 07:40:17 51°16.265 2°54.23 5.7 20 1.8 101580 44
2011-02-21 07:40:22 51°16.264 2°54.226 5.1 250 1.8 101580 44
2011-02-21 07:40:27 51°16.263 2°54.223 6 250 1.9 101580 43
2011-02-21 07:40:32 51°16.262 2°54.22 5.9 253 1.9 101580 43
2011-02-21 07:40:37 51°16.261 2°54.217 6.2 253 1.9 101590 42
2011-02-21 07:40:42 51°16.26 2°54.214 7.2 254 1.9 101590 42
2011-02-21 07:40:47 51°16.259 2°54.21 5.9 255 1.8 101590 42
2011-02-21 07:40:52 51°16.259 2°54.206 6.3 253 1.8 101590 42
2011-02-21 07:40:57 51°16.258 2°54.203 5.7 257 1.9 101590 43
2011-02-21 07:41:02 51°16.257 2°54.201 4.5 261 1.9 101590 43
2011-02-21 07:41:07 51°16.256 2°54.197 6.5 257 1.8 101590 42
2011-02-21 07:41:12 51°16.255 2°54.194 4 260 1.8 101590 42
2011-02-21 07:41:17 51°16.254 2°54.191 4.5 260 1.8 101590 41
2011-02-21 07:41:22 51°16.253 2°54.188 6.5 257 1.8 101590 41
2011-02-21 07:41:27 51°16.252 2°54.184 6.5 256 1.8 101590 42
2011-02-21 07:41:32 51°16.251 2°54.181 5.6 260 1.8 101590 42
2011-02-21 07:41:37 51°16.25 2°54.178 6.2 259 1.9 101590 43
2011-02-21 07:41:42 51°16.249 2°54.174 7 258 1.9 101590 43
2011-02-21 07:41:47 51°16.248 2°54.171 6.5 259 1.9 101590 43
2011-02-21 07:41:52 51°16.247 2°54.167 4.6 262 1.9 101590 43
2011-02-21 07:41:57 51°16.246 2°54.163 4.4 263 1.9 101590 43
2011-02-21 07:42:02 51°16.245 2°54.16 5.2 263 1.9 101590 43
2011-02-21 07:42:07 51°16.245 2°54.156 3.1 267 1.9 101590 43
2011-02-21 07:42:12 51°16.244 2°54.153 3 263 1.9 101590 43
2011-02-21 07:42:17 51°16.243 2°54.15 3.5 265 1.9 101600 42
2011-02-21 07:42:22 51°16.242 2°54.146 3.3 265 1.9 101600 42
2011-02-21 07:42:27 51°16.241 2°54.143 2.9 263 1.9 101600 43
2011-02-21 07:42:32 51°16.24 2°54.139 5.7 273 1.9 101600 43
2011-02-21 07:42:37 51°16.239 2°54.136 4.8 270 1.9 101590 43
2011-02-21 07:42:42 51°16.238 2°54.132 4.4 266 1.9 101590 43
2011-02-21 07:42:47 51°16.238 2°54.128 2.9 265 1.9 101590 42
2011-02-21 07:42:52 51°16.237 2°54.125 3.9 263 1.9 101590 42
2011-02-21 07:42:57 51°16.236 2°54.121 4.7 264 1.9 101590 42
2011-02-21 07:43:02 51°16.235 2°54.118 3.5 263 1.9 101590 42
2011-02-21 07:43:07 51°16.234 2°54.114 5.3 263 1.8 101600 42
2011-02-21 07:43:12 51°16.233 2°54.111 3.6 262 1.8 101600 42
2011-02-21 07:43:17 51°16.232 2°54.107 4.3 262 1.8 101600 41
2011-02-21 07:43:22 51°16.232 2°54.104 4.9 262 1.8 101600 41
2011-02-21 07:43:27 51°16.231 2°54.1 3.9 263 1.8 101600 43
2011-02-21 07:43:32 51°16.23 2°54.097 5.2 262 1.8 101600 43
2011-02-21 07:43:37 51°16.229 2°54.093 4.5 267 1.8 101590 42
2011-02-21 07:43:42 51°16.228 2°54.09 3.4 263 1.8 101590 42
2011-02-21 07:43:47 51°16.227 2°54.086 4.1 264 1.8 101590 40
2011-02-21 07:43:52 51°16.226 2°54.082 4.9 265 1.8 101590 40
2011-02-21 07:43:57 51°16.225 2°54.079 4.8 263 1.8 101570 42
2011-02-21 07:44:02 51°16.224 2°54.076 3.8 263 1.8 101570 42
2011-02-21 07:44:07 51°16.224 2°54.073 3.7 264 1.8 101570 41
2011-02-21 07:44:12 51°16.223 2°54.069 4.9 262 1.8 101570 41
2011-02-21 07:44:17 51°16.222 2°54.066 3.4 265 1.8 101570 42
2011-02-21 07:44:22 51°16.221 2°54.062 3.7 266 1.8 101570 42
2011-02-21 07:44:27 51°16.22 2°54.059 4.1 265 1.9 101580 42
2011-02-21 07:44:32 51°16.219 2°54.056 5.3 262 1.9 101580 42
2011-02-21 07:44:37 51°16.219 2°54.052 3.8 263 1.9 101580 44
2011-02-21 07:44:42 51°16.218 2°54.049 3.3 265 1.9 101580 44
2011-02-21 07:44:47 51°16.217 2°54.045 3.4 263 1.9 101570 44
2011-02-21 07:44:52 51°16.216 2°54.042 4.6 264 1.9 101570 44
2011-02-21 07:44:57 51°16.215 2°54.038 3.5 264 1.9 101580 42
2011-02-21 07:45:02 51°16.214 2°54.034 3.7 266 1.9 101580 42
2011-02-21 07:45:07 51°16.213 2°54.032 3.8 265 1.9 101570 42
2011-02-21 07:45:12 51°16.212 2°54.029 3.6 267 1.9 101570 42
2011-02-21 07:45:17 51°16.212 2°54.025 3.5 265 1.9 101580 42
2011-02-21 07:45:22 51°16.211 2°54.022 4.4 261 1.9 101580 42
2011-02-21 07:45:27 51°16.21 2°54.018 5.8 261 1.9 101570 43
2011-02-21 07:45:32 51°16.209 2°54.015 5 261 1.9 101570 43
2011-02-21 07:45:37 51°16.208 2°54.012 5.8 259 1.9 101580 42
2011-02-21 07:45:42 51°16.207 2°54.008 5.9 261 1.9 101580 42
2011-02-21 07:45:47 51°16.206 2°54.005 5.3 261 1.9 101570 42
2011-02-21 07:45:52 51°16.205 2°54.002 3.7 261 1.9 101570 42
2011-02-21 07:45:57 51°16.205 2°53.998 4.5 261 1.9 101570 42
2011-02-21 07:46:02 51°16.204 2°53.995 5.4 258 1.9 101570 42
2011-02-21 07:46:07 51°16.203 2°53.991 5.2 259 1.9 101570 43
2011-02-21 07:46:12 51°16.202 2°53.988 6.2 256 1.9 101570 43
2011-02-21 07:46:17 51°16.201 2°53.985 6.3 258 1.9 101570 42
2011-02-21 07:46:22 51°16.2 2°53.982 4.8 259 1.9 101570 42
2011-02-21 07:46:27 51°16.199 2°53.979 5.2 261 1.9 101570 42
2011-02-21 07:46:32 51°16.198 2°53.975 4 263 1.9 101570 42
2011-02-21 07:46:37 51°16.198 2°53.972 4.6 264 1.9 101570 42
2011-02-21 07:46:42 51°16.197 2°53.969 4.4 262 1.9 101570 42
2011-02-21 07:46:47 51°16.196 2°53.966 4.9 263 1.9 101570 44
2011-02-21 07:46:52 51°16.195 2°53.962 6 261 1.9 101570 44
2011-02-21 07:46:57 51°16.194 2°53.958 5 262 1.9 101580 44
2011-02-21 07:47:02 51°16.193 2°53.955 5.9 259 1.9 101580 44
2011-02-21 07:47:07 51°16.192 2°53.952 6.4 259 1.9 101570 42
2011-02-21 07:47:12 51°16.191 2°53.948 8 258 1.9 101570 42
2011-02-21 07:47:17 51°16.19 2°53.945 6.2 261 1.9 101570 42
2011-02-21 07:47:22 51°16.189 2°53.941 8.3 257 1.9 101570 42
2011-02-21 07:47:27 51°16.189 2°53.938 7.9 259 1.9 101570 42
2011-02-21 07:47:32 51°16.188 2°53.934 7.5 257 1.9 101570 42
2011-02-21 07:47:37 51°16.187 2°53.931 6.9 258 1.9 101570 42
2011-02-21 07:47:42 51°16.186 2°53.927 8.1 258 1.9 101570 42
2011-02-21 07:47:47 51°16.185 2°53.924 8 256 1.9 101570 42
2011-02-21 07:47:52 51°16.183 2°53.92 6.1 255 1.9 101570 42
2011-02-21 07:47:57 51°16.181 2°53.916 7.4 256 1.9 101570 43
2011-02-21 07:48:02 51°16.179 2°53.912 7.3 257 1.9 101570 43
2011-02-21 07:48:07 51°16.176 2°53.907 7.5 284 1.9 101570 43
2011-02-21 07:48:12 51°16.173 2°53.903 6.2 261 1.9 101570 43
2011-02-21 07:48:17 51°16.17 2°53.897 4.4 284 1.8 101570 43
2011-02-21 07:48:22 51°16.166 2°53.892 4 267 1.8 101570 43
2011-02-21 07:48:27 51°16.162 2°53.886 3.9 264 1.8 101570 42
2011-02-21 07:48:32 51°16.159 2°53.878 4.6 270 1.8 101570 42
2011-02-21 07:48:37 51°16.155 2°53.869 4.5 72 1.8 101570 43
2011-02-21 07:48:42 51°16.152 2°53.86 3.8 34 1.8 101570 43
2011-02-21 07:48:47 51°16.149 2°53.851 3.8 75 1.8 101570 43
2011-02-21 07:48:52 51°16.147 2°53.84 3.6 33 1.8 101570 43
2011-02-21 07:48:57 51°16.145 2°53.829 3 75 1.8 101580 41
2011-02-21 07:49:02 51°16.144 2°53.817 2 32 1.8 101580 41
2011-02-21 07:49:07 51°16.143 2°53.806 1.3 74 1.8 101580 40
2011-02-21 07:49:12 51°16.143 2°53.794 0.2 36 1.8 101580 40
2011-02-21 07:49:17 51°16.144 2°53.783 0.7 73 1.8 101580 41
2011-02-21 07:49:22 51°16.145 2°53.771 2.5 37 1.8 101580 41
2011-02-21 07:49:27 51°16.148 2°53.76 2.3 27 1.8 101580 41
2011-02-21 07:49:32 51°16.151 2°53.75 3.7 36 1.8 101580 41
2011-02-21 07:49:37 51°16.154 2°53.74 3.7 29 1.8 101590 42
2011-02-21 07:49:42 51°16.158 2°53.731 3.5 29 1.8 101590 42
2011-02-21 07:49:47 51°16.162 2°53.723 4.1 26 1.9 101590 42
2011-02-21 07:49:52 51°16.167 2°53.716 4.1 26 1.9 101590 42
2011-02-21 07:49:57 51°16.172 2°53.71 5.5 23 1.9 101590 43
2011-02-21 07:50:02 51°16.177 2°53.705 5.2 22 1.9 101590 43
2011-02-21 07:50:07 51°16.182 2°53.7 5.2 14 1.8 101580 42
2011-02-21 07:50:11 51°16.187 2°53.698 5.9 14 1.8 101580 42
2011-02-21 07:50:17 51°16.194 2°53.695 7 12 1.8 101580 41
2011-02-21 07:50:22 51°16.199 2°53.694 6 9 1.8 101580 41
2011-02-21 07:50:27 51°16.204 2°53.695 6.2 8 1.8 101580 42
2011-02-21 07:50:32 51°16.209 2°53.696 5 5 1.8 101580 42
2011-02-21 07:50:37 51°16.213 2°53.698 5.8 3 1.8 101580 43
2011-02-21 07:50:42 51°16.218 2°53.701 5.9 359 1.8 101580 43
2011-02-21 07:50:47 51°16.221 2°53.705 5.3 353 1.8 101580 42
2011-02-21 07:50:51 51°16.224 2°53.709 7 350 1.8 101580 42
2011-02-21 07:50:57 51°16.227 2°53.715 6.9 280 1.8 101580 43
2011-02-21 07:51:02 51°16.229 2°53.721 7.3 341 1.8 101580 43
2011-02-21 07:51:07 51°16.231 2°53.727 6.7 280 1.8 101580 41
2011-02-21 07:51:11 51°16.232 2°53.734 8 338 1.8 101580 41
2011-02-21 07:51:17 51°16.233 2°53.744 7.8 283 1.8 101580 42
2011-02-21 07:51:22 51°16.233 2°53.754 6.9 336 1.8 101580 42
2011-02-21 07:51:27 51°16.231 2°53.764 7.2 340 1.8 101570 42
2011-02-21 07:51:32 51°16.23 2°53.774 8.2 332 1.8 101570 42
2011-02-21 07:51:36 51°16.228 2°53.783 8.7 279 1.8 101570 42
2011-02-21 07:51:42 51°16.225 2°53.797 8.9 330 1.8 101570 42
2011-02-21 07:51:47 51°16.222 2°53.809 8.7 281 1.8 101570 41
2011-02-21 07:51:52 51°16.219 2°53.821 8.5 332 1.8 101570 41
2011-02-21 07:51:57 51°16.217 2°53.835 9.3 283 1.9 101570 43
2011-02-21 07:52:02 51°16.214 2°53.848 10.6 334 1.9 101570 43
2011-02-21 07:52:07 51°16.213 2°53.862 10.4 281 1.8 101570 42
2011-02-21 07:52:12 51°16.212 2°53.876 8.7 337 1.8 101570 42
2011-02-21 07:52:17 51°16.212 2°53.891 10.6 336 1.8 101570 43
2011-02-21 07:52:22 51°16.211 2°53.906 9.2 337 1.8 101570 43
2011-02-21 07:52:27 51°16.211 2°53.92 9 337 1.8 101570 43
2011-02-21 07:52:32 51°16.211 2°53.935 10.2 337 1.8 101570 43
2011-02-21 07:52:37 51°16.212 2°53.95 10.9 281 1.8 101560 42
2011-02-21 07:52:42 51°16.212 2°53.965 9 337 1.8 101560 42
2011-02-21 07:52:47 51°16.214 2°53.98 8.7 283 1.8 101560 41
2011-02-21 07:52:52 51°16.215 2°53.996 8.4 339 1.8 101560 41
2011-02-21 07:52:57 51°16.216 2°54.011 10.1 284 1.8 101570 42
2011-02-21 07:53:02 51°16.216 2°54.026 11.3 338 1.8 101570 42
2011-02-21 07:53:07 51°16.218 2°54.042 9.9 286 1.8 101560 41
2011-02-21 07:53:11 51°16.218 2°54.054 8.8 336 1.8 101560 41
2011-02-21 07:53:17 51°16.219 2°54.072 8.5 287 1.8 101560 41
2011-02-21 07:53:22 51°16.219 2°54.088 10.9 338 1.8 101560 41
2011-02-21 07:53:27 51°16.221 2°54.104 9 338 1.7 101560 43
2011-02-21 07:53:32 51°16.221 2°54.119 9.8 336 1.7 101560 43
2011-02-21 07:53:36 51°16.222 2°54.132 8.9 280 1.8 101560 43
2011-02-21 07:53:42 51°16.223 2°54.151 11 338 1.8 101560 43
2011-02-21 07:53:47 51°16.224 2°54.166 8.4 281 1.7 101560 43
2011-02-21 07:53:52 51°16.225 2°54.182 10.8 339 1.7 101560 43
2011-02-21 07:53:57 51°16.226 2°54.197 9.2 340 1.8 101560 42
2011-02-21 07:54:02 51°16.226 2°54.211 9.8 336 1.8 101560 42
2011-02-21 07:54:07 51°16.228 2°54.226 8.6 279 1.8 101560 43
2011-02-21 07:54:12 51°16.228 2°54.239 10.3 337 1.8 101560 43
2011-02-21 07:54:17 51°16.229 2°54.252 8.2 287 1.8 101560 41
2011-02-21 07:54:22 51°16.229 2°54.265 8.2 341 1.8 101560 41
2011-02-21 07:54:27 51°16.23 2°54.277 8.2 340 1.8 101560 41
2011-02-21 07:54:32 51°16.23 2°54.288 7.7 340 1.8 101560 41
2011-02-21 07:54:37 51°16.23 2°54.298 8.2 285 1.8 101560 43
2011-02-21 07:54:42 51°16.23 2°54.307 8.9 337 1.8 101560 43
2011-02-21 07:54:47 51°16.23 2°54.316 8 282 1.8 101560 43
2011-02-21 07:54:52 51°16.23 2°54.324 8 336 1.8 101560 43
2011-02-21 07:54:57 51°16.229 2°54.331 7.8 281 1.8 101560 43
2011-02-21 07:55:02 51°16.228 2°54.338 8.8 335 1.8 101560 43
2011-02-21 07:55:07 51°16.226 2°54.344 6.6 288 1.7 101560 43
2011-02-21 07:55:11 51°16.226 2°54.348 7.2 334 1.7 101560 43
2011-02-21 07:55:17 51°16.224 2°54.353 7.7 287 1.7 101570 41
2011-02-21 07:55:22 51°16.223 2°54.357 7 330 1.7 101570 41
2011-02-21 07:55:27 51°16.221 2°54.36 6.6 329 1.7 101560 41
2011-02-21 07:55:32 51°16.22 2°54.362 6.7 327 1.7 101560 41
2011-02-21 07:55:37 51°16.217 2°54.364 5.8 285 1.7 101570 43
2011-02-21 07:55:42 51°16.216 2°54.366 7.5 324 1.7 101570 43
2011-02-21 07:55:47 51°16.214 2°54.368 6.2 281 1.7 101570 41
2011-02-21 07:55:52 51°16.212 2°54.37 6.5 322 1.7 101570 41
2011-02-21 07:55:57 51°16.209 2°54.371 7.5 322 1.7 101570 43
2011-02-21 07:56:02 51°16.208 2°54.372 5.5 321 1.7 101570 43
2011-02-21 07:56:07 51°16.206 2°54.374 6.7 287 1.7 101570 41
2011-02-21 07:56:12 51°16.204 2°54.375 7.9 328 1.7 101570 41
2011-02-21 07:56:16 51°16.202 2°54.376 6.7 286 1.7 101570 43
2011-02-21 07:56:22 51°16.201 2°54.377 5.5 333 1.7 101570 43
2011-02-21 07:56:27 51°16.199 2°54.378 6.2 332 1.7 101570 41
2011-02-21 07:56:31 51°16.198 2°54.379 6.7 332 1.7 101570 41
2011-02-21 07:56:37 51°16.196 2°54.38 5.7 281 1.7 101570 41
2011-02-21 07:56:42 51°16.194 2°54.38 5.4 336 1.7 101570 41
2011-02-21 07:56:47 51°16.193 2°54.381 5.5 280 1.8 101570 41
2011-02-21 07:56:52 51°16.192 2°54.382 6.6 339 1.8 101570 41
2011-02-21 07:56:57 51°16.191 2°54.382 6.2 281 1.7 101570 43
2011-02-21 07:57:02 51°16.19 2°54.383 6.3 339 1.7 101570 43
2011-02-21 07:57:07 51°16.189 2°54.383 5.5 285 1.7 101570 41
2011-02-21 07:57:12 51°16.188 2°54.383 5.6 342 1.7 101570 41
2011-02-21 07:57:17 51°16.187 2°54.383 5.7 280 1.7 101570 41
2011-02-21 07:57:22 51°16.187 2°54.383 5.7 337 1.7 101570 41
2011-02-21 07:57:27 51°16.186 2°54.383 5 338 1.7 101560 41
2011-02-21 07:57:31 51°16.185 2°54.383 5.6 340 1.7 101560 41
2011-02-21 07:57:37 51°16.185 2°54.383 5.3 283 1.7 101570 41
2011-02-21 07:57:42 51°16.184 2°54.383 5.7 343 1.7 101570 41
2011-02-21 07:57:47 51°16.184 2°54.383 4.7 348 1.7 101570 41
2011-02-21 07:57:52 51°16.183 2°54.382 5 349 1.7 101570 41
2011-02-21 07:57:57 51°16.182 2°54.382 5 350 1.7 101570 42
2011-02-21 07:58:02 51°16.182 2°54.381 5.9 352 1.7 101570 42
2011-02-21 07:58:07 51°16.182 2°54.381 6.5 354 1.7 101570 42
2011-02-21 07:58:12 51°16.181 2°54.38 6.6 354 1.7 101570 42
2011-02-21 07:58:17 51°16.181 2°54.38 6 351 1.7 101570 43
2011-02-21 07:58:22 51°16.182 2°54.379 5.6 351 1.7 101570 43
2011-02-21 07:58:27 51°16.181 2°54.378 5.2 353 1.8 101560 42
2011-02-21 07:58:32 51°16.181 2°54.377 6 353 1.8 101560 42
2011-02-21 07:58:37 51°16.181 2°54.376 5.7 350 1.8 101570 41
2011-02-21 07:58:42 51°16.181 2°54.375 5.4 345 1.8 101570 41
2011-02-21 07:58:47 51°16.181 2°54.374 4.6 349 1.8 101560 43
2011-02-21 07:58:52 51°16.181 2°54.373 5.3 350 1.8 101560 43
2011-02-21 07:58:57 51°16.181 2°54.372 5.5 358 1.8 101570 43
2011-02-21 07:59:02 51°16.181 2°54.371 5.8 354 1.8 101570 43
2011-02-21 07:59:07 51°16.18 2°54.369 5.2 357 1.8 101560 44
2011-02-21 07:59:12 51°16.181 2°54.368 5.2 358 1.8 101560 44
2011-02-21 07:59:17 51°16.181 2°54.367 5.9 359 1.8 101560 42
2011-02-21 07:59:22 51°16.181 2°54.366 4.6 359 1.8 101560 42
2011-02-21 07:59:27 51°16.181 2°54.365 5.2 359 1.8 101560 42
2011-02-21 07:59:31 51°16.181 2°54.363 5.8 356 1.8 101560 42
2011-02-21 07:59:37 51°16.181 2°54.362 4.7 357 1.8 101560 42
2011-02-21 07:59:42 51°16.182 2°54.36 5.3 358 1.8 101560 42
2011-02-21 07:59:47 51°16.182 2°54.359 5.4 360 1.8 101560 42
2011-02-21 07:59:52 51°16.182 2°54.357 5 5 1.8 101560 42
2011-02-21 07:59:57 51°16.182 2°54.355 4.8 4 1.8 101560 42
2011-02-21 08:00:02 51°16.182 2°54.353 4.2 2 1.8 101560 42
2011-02-21 08:00:07 51°16.182 2°54.352 5.6 359 1.8 101560 42
2011-02-21 08:00:11 51°16.183 2°54.351 5.6 -999 1.8 101560 42
2011-02-21 08:00:17 51°16.183 2°54.349 5.7 359 1.8 101560 42
2011-02-21 08:00:22 51°16.183 2°54.347 8 359 1.8 101560 42
2011-02-21 08:00:27 51°16.183 2°54.345 8.2 358 1.8 101550 42
2011-02-21 08:00:32 51°16.184 2°54.344 7.9 358 1.8 101550 42
2011-02-21 08:00:36 51°16.184 2°54.342 7.4 357 1.8 101560 43
2011-02-21 08:00:42 51°16.184 2°54.34 6 359 1.8 101560 43
2011-02-21 08:00:47 51°16.184 2°54.338 7 359 1.8 101560 44
2011-02-21 08:00:52 51°16.185 2°54.336 6.1 358 1.8 101560 44
2011-02-21 08:00:57 51°16.184 2°54.334 6.3 357 1.8 101560 43
2011-02-21 08:01:02 51°16.185 2°54.332 7 357 1.8 101560 43
2011-02-21 08:01:07 51°16.185 2°54.33 6.4 359 1.8 101550 44
2011-02-21 08:01:12 51°16.185 2°54.328 6.6 -999 1.8 101550 44
2011-02-21 08:01:17 51°16.185 2°54.326 7.7 -999 1.8 101550 42
2011-02-21 08:01:22 51°16.185 2°54.324 6.8 358 1.8 101550 42
2011-02-21 08:01:27 51°16.186 2°54.322 6.6 358 1.8 101560 43
2011-02-21 08:01:31 51°16.186 2°54.32 5.7 -999 1.8 101560 43
2011-02-21 08:01:37 51°16.186 2°54.318 6.2 360 1.7 101550 42
2011-02-21 08:01:42 51°16.186 2°54.316 6.1 -999 1.7 101550 42
2011-02-21 08:01:47 51°16.187 2°54.314 5.7 2 1.7 101550 43
2011-02-21 08:01:52 51°16.187 2°54.312 7.5 -999 1.7 101550 43
2011-02-21 08:01:57 51°16.187 2°54.309 5.8 3 1.7 101560 42
2011-02-21 08:02:02 51°16.187 2°54.308 5.4 2 1.7 101560 42
2011-02-21 08:02:07 51°16.187 2°54.305 6.6 3 1.7 101560 42
2011-02-21 08:02:11 51°16.187 2°54.304 6.4 2 1.7 101560 42
2011-02-21 08:02:17 51°16.188 2°54.301 6.9 2 1.7 101540 41
2011-02-21 08:02:22 51°16.188 2°54.299 7.3 5 1.7 101540 41
2011-02-21 08:02:27 51°16.188 2°54.297 6 5 1.6 101550 41
2011-02-21 08:02:32 51°16.188 2°54.294 6.2 5 1.6 101550 41
2011-02-21 08:02:37 51°16.188 2°54.292 6 6 1.6 101560 41
2011-02-21 08:02:42 51°16.188 2°54.29 6 6 1.6 101560 41
2011-02-21 08:02:47 51°16.189 2°54.288 5 2 1.7 101550 43
2011-02-21 08:02:52 51°16.189 2°54.286 5.9 3 1.7 101550 43
2011-02-21 08:02:57 51°16.189 2°54.284 5.4 8 1.7 101550 42
2011-02-21 08:03:02 51°16.189 2°54.282 6.4 7 1.7 101550 42
2011-02-21 08:03:07 51°16.189 2°54.28 6.3 7 1.6 101550 41
2011-02-21 08:03:11 51°16.19 2°54.278 7.4 9 1.6 101550 41
2011-02-21 08:03:17 51°16.19 2°54.276 5.8 7 1.6 101560 43
2011-02-21 08:03:22 51°16.19 2°54.273 5 6 1.6 101560 43
2011-02-21 08:03:27 51°16.19 2°54.272 3.8 4 1.6 101560 43
2011-02-21 08:03:32 51°16.19 2°54.27 5.4 4 1.6 101560 43
2011-02-21 08:03:37 51°16.191 2°54.267 5.7 359 1.6 101550 43
2011-02-21 08:03:42 51°16.191 2°54.265 5.2 2 1.6 101550 43
2011-02-21 08:03:47 51°16.191 2°54.264 6.4 -999 1.6 101550 42
2011-02-21 08:03:52 51°16.191 2°54.262 5.6 358 1.6 101550 42
2011-02-21 08:03:57 51°16.191 2°54.26 5.6 2 1.7 101560 42
2011-02-21 08:04:02 51°16.191 2°54.258 5.9 4 1.7 101560 42
2011-02-21 08:04:07 51°16.192 2°54.256 6.6 360 1.7 101550 42
2011-02-21 08:04:11 51°16.192 2°54.255 5.3 3 1.7 101550 42
2011-02-21 08:04:17 51°16.192 2°54.252 5.5 3 1.8 101550 44
2011-02-21 08:04:22 51°16.192 2°54.25 5 4 1.8 101550 44
2011-02-21 08:04:27 51°16.192 2°54.248 5.4 -999 1.8 101550 42
2011-02-21 08:04:32 51°16.193 2°54.246 5 4 1.8 101550 42
2011-02-21 08:04:37 51°16.193 2°54.244 5.5 3 1.8 101570 44
2011-02-21 08:04:42 51°16.193 2°54.242 6 4 1.8 101570 44
2011-02-21 08:04:47 51°16.193 2°54.24 5.5 2 1.8 101550 44
2011-02-21 08:04:52 51°16.194 2°54.238 5.1 4 1.8 101550 44
2011-02-21 08:04:57 51°16.194 2°54.236 4.4 3 1.8 101550 44
2011-02-21 08:05:02 51°16.194 2°54.234 5.5 2 1.8 101550 44
2011-02-21 08:05:07 51°16.194 2°54.232 5.5 3 1.8 101550 43
2011-02-21 08:05:12 51°16.195 2°54.23 5.4 3 1.8 101550 43
2011-02-21 08:05:16 51°16.195 2°54.229 5.4 2 1.7 101550 42
2011-02-21 08:05:22 51°16.195 2°54.227 6.1 3 1.7 101550 42
2011-02-21 08:05:27 51°16.195 2°54.224 6.5 2 1.7 101560 43
2011-02-21 08:05:32 51°16.195 2°54.222 5.1 2 1.7 101560 43
2011-02-21 08:05:37 51°16.195 2°54.221 5.2 3 1.7 101550 42
2011-02-21 08:05:42 51°16.196 2°54.219 4.4 4 1.7 101550 42
2011-02-21 08:05:47 51°16.196 2°54.217 4.4 5 1.8 101560 44
2011-02-21 08:05:52 51°16.196 2°54.215 5.5 3 1.8 101560 44
2011-02-21 08:05:57 51°16.196 2°54.213 4.8 5 1.8 101550 44
2011-02-21 08:06:02 51°16.196 2°54.211 4.6 4 1.8 101550 44
2011-02-21 08:06:07 51°16.197 2°54.209 6 360 1.8 101550 43
2011-02-21 08:06:12 51°16.197 2°54.207 5.7 -999 1.8 101550 43
2011-02-21 08:06:17 51°16.197 2°54.206 5.1 1 1.8 101540 44
2011-02-21 08:06:22 51°16.197 2°54.204 5.8 1 1.8 101540 44
2011-02-21 08:06:27 51°16.197 2°54.201 5.4 3 1.8 101550 42
2011-02-21 08:06:32 51°16.197 2°54.2 6 3 1.8 101550 42
2011-02-21 08:06:37 51°16.198 2°54.198 5.4 3 1.8 101550 42
2011-02-21 08:06:42 51°16.198 2°54.196 5.5 2 1.8 101550 42
2011-02-21 08:06:47 51°16.198 2°54.194 5.5 2 1.7 101560 43
2011-02-21 08:06:51 51°16.198 2°54.192 5.7 3 1.7 101560 43
2011-02-21 08:06:57 51°16.198 2°54.189 6.4 5 1.7 101560 43
2011-02-21 08:07:02 51°16.198 2°54.187 5.2 5 1.7 101560 43
2011-02-21 08:07:07 51°16.198 2°54.185 5.7 4 1.7 101560 43
2011-02-21 08:07:12 51°16.199 2°54.183 4.9 5 1.7 101560 43
2011-02-21 08:07:17 51°16.199 2°54.181 5.3 4 1.7 101550 42
2011-02-21 08:07:22 51°16.199 2°54.179 5.8 6 1.7 101550 42
2011-02-21 08:07:27 51°16.199 2°54.177 5.6 6 1.7 101560 42
2011-02-21 08:07:32 51°16.2 2°54.174 5.6 7 1.7 101560 42
2011-02-21 08:07:37 51°16.2 2°54.172 6.3 7 1.7 101560 42
2011-02-21 08:07:42 51°16.2 2°54.171 4.2 4 1.7 101560 42
2011-02-21 08:07:47 51°16.2 2°54.168 5 5 1.7 101550 42
2011-02-21 08:07:52 51°16.2 2°54.166 5.3 7 1.7 101550 42
2011-02-21 08:07:57 51°16.2 2°54.164 5.2 8 1.8 101550 43
2011-02-21 08:08:02 51°16.2 2°54.162 6 8 1.8 101550 43
2011-02-21 08:08:07 51°16.201 2°54.16 5.8 10 1.7 101560 44
2011-02-21 08:08:12 51°16.201 2°54.158 6.4 8 1.7 101560 44
2011-02-21 08:08:17 51°16.201 2°54.156 5.8 7 1.8 101550 44
2011-02-21 08:08:22 51°16.201 2°54.154 7 8 1.8 101550 44
2011-02-21 08:08:27 51°16.201 2°54.152 5.9 7 1.7 101550 44
2011-02-21 08:08:31 51°16.202 2°54.15 5.1 6 1.7 101550 44
2011-02-21 08:08:37 51°16.202 2°54.147 5.8 3 1.7 101560 44
2011-02-21 08:08:42 51°16.202 2°54.145 5.4 4 1.7 101560 44
2011-02-21 08:08:47 51°16.203 2°54.143 4.9 5 1.8 101560 43
2011-02-21 08:08:52 51°16.203 2°54.141 5.9 4 1.8 101560 43
2011-02-21 08:08:57 51°16.203 2°54.138 5.5 6 1.7 101560 43
2011-02-21 08:09:02 51°16.203 2°54.136 7 8 1.7 101560 43
2011-02-21 08:09:07 51°16.204 2°54.134 5.8 6 1.8 101560 43
2011-02-21 08:09:11 51°16.204 2°54.132 8.5 8 1.8 101560 43
2011-02-21 08:09:17 51°16.204 2°54.129 7.6 9 1.7 101550 43
2011-02-21 08:09:22 51°16.204 2°54.127 7.7 8 1.7 101550 43
2011-02-21 08:09:27 51°16.205 2°54.125 7.3 9 1.8 101550 43
2011-02-21 08:09:32 51°16.205 2°54.123 8.1 10 1.8 101550 43
2011-02-21 08:09:36 51°16.205 2°54.121 7.5 9 1.7 101550 43
2011-02-21 08:09:42 51°16.205 2°54.118 6.4 10 1.7 101550 43
2011-02-21 08:09:47 51°16.206 2°54.117 8 9 1.7 101540 44
2011-02-21 08:09:52 51°16.206 2°54.114 5.7 6 1.7 101540 44
2011-02-21 08:09:57 51°16.206 2°54.112 8.2 7 1.7 101550 44
2011-02-21 08:10:02 51°16.206 2°54.11 5.9 4 1.7 101550 44
2011-02-21 08:10:07 51°16.207 2°54.108 5.1 7 1.7 101550 42
2011-02-21 08:10:11 51°16.207 2°54.106 5.4 7 1.7 101550 42
2011-02-21 08:10:17 51°16.207 2°54.103 6.7 8 1.7 101550 44
2011-02-21 08:10:22 51°16.207 2°54.101 5.4 7 1.7 101550 44
2011-02-21 08:10:27 51°16.208 2°54.099 4.5 6 1.8 101550 42
2011-02-21 08:10:32 51°16.208 2°54.097 7.4 8 1.8 101550 42
2011-02-21 08:10:37 51°16.208 2°54.095 6.5 7 1.8 101560 43
2011-02-21 08:10:42 51°16.208 2°54.093 5.8 6 1.8 101560 43
2011-02-21 08:10:47 51°16.209 2°54.091 5.5 5 1.8 101550 45
2011-02-21 08:10:52 51°16.209 2°54.089 6.7 6 1.8 101550 45
2011-02-21 08:10:57 51°16.209 2°54.087 7 8 1.8 101550 44
2011-02-21 08:11:02 51°16.209 2°54.085 6.2 7 1.8 101550 44
2011-02-21 08:11:07 51°16.209 2°54.083 6.2 6 1.8 101550 44
2011-02-21 08:11:11 51°16.209 2°54.081 6.2 7 1.8 101550 44
2011-02-21 08:11:17 51°16.209 2°54.078 7.5 9 1.8 101550 44
2011-02-21 08:11:22 51°16.209 2°54.076 6.6 9 1.8 101550 44
2011-02-21 08:11:27 51°16.21 2°54.074 7.8 9 1.8 101550 43
2011-02-21 08:11:32 51°16.21 2°54.072 8.2 9 1.8 101550 43
2011-02-21 08:11:37 51°16.21 2°54.07 7.3 8 1.8 101550 43
2011-02-21 08:11:42 51°16.21 2°54.068 6.2 7 1.8 101550 43
2011-02-21 08:11:47 51°16.211 2°54.066 7.5 7 1.8 101550 43
2011-02-21 08:11:52 51°16.211 2°54.063 8.4 8 1.8 101550 43
2011-02-21 08:11:57 51°16.211 2°54.061 7.9 9 1.8 101550 44
2011-02-21 08:12:02 51°16.211 2°54.059 6.9 7 1.8 101550 44
2011-02-21 08:12:07 51°16.212 2°54.057 5.7 7 1.8 101550 43
2011-02-21 08:12:12 51°16.212 2°54.054 5.6 7 1.8 101550 43
2011-02-21 08:12:17 51°16.212 2°54.052 5.9 8 1.8 101540 43
2011-02-21 08:12:22 51°16.212 2°54.051 7.5 10 1.8 101540 43
2011-02-21 08:12:27 51°16.212 2°54.048 7.3 11 1.8 101550 42
2011-02-21 08:12:32 51°16.212 2°54.046 7.9 9 1.8 101550 42
2011-02-21 08:12:37 51°16.212 2°54.044 7.3 8 1.8 101550 43
2011-02-21 08:12:42 51°16.212 2°54.042 6.6 8 1.8 101550 43
2011-02-21 08:12:47 51°16.212 2°54.04 7.9 9 1.7 101550 42
2011-02-21 08:12:52 51°16.213 2°54.038 8.3 9 1.7 101550 42
2011-02-21 08:12:57 51°16.213 2°54.036 7 8 1.8 101550 43
2011-02-21 08:13:02 51°16.213 2°54.034 6 11 1.8 101550 43
2011-02-21 08:13:07 51°16.213 2°54.031 7.2 11 1.7 101550 41
2011-02-21 08:13:12 51°16.213 2°54.029 6.5 11 1.7 101550 41
2011-02-21 08:13:17 51°16.213 2°54.027 7.8 9 1.7 101550 44
2011-02-21 08:13:22 51°16.214 2°54.025 8 8 1.7 101550 44
2011-02-21 08:13:27 51°16.214 2°54.023 6.2 10 1.8 101550 44
2011-02-21 08:13:32 51°16.214 2°54.021 5.2 8 1.8 101550 44
2011-02-21 08:13:37 51°16.214 2°54.019 6.3 6 1.8 101550 44
2011-02-21 08:13:42 51°16.214 2°54.017 6.5 2 1.8 101550 44
2011-02-21 08:13:47 51°16.215 2°54.014 6 3 1.8 101550 44
2011-02-21 08:13:52 51°16.215 2°54.012 5.5 5 1.8 101550 44
2011-02-21 08:13:57 51°16.215 2°54.01 5.8 4 1.8 101550 45
2011-02-21 08:14:02 51°16.215 2°54.008 5 4 1.8 101550 45
2011-02-21 08:14:07 51°16.215 2°54.006 4.9 8 1.8 101540 43
2011-02-21 08:14:12 51°16.216 2°54.004 5.8 7 1.8 101540 43
2011-02-21 08:14:16 51°16.216 2°54.002 7.8 8 1.8 101540 44
2011-02-21 08:14:22 51°16.217 2°54 8.1 8 1.8 101540 44
2011-02-21 08:14:27 51°16.218 2°53.999 7.9 8 1.8 101540 43
2011-02-21 08:14:31 51°16.218 2°53.998 6.3 7 1.8 101540 43
2011-02-21 08:14:37 51°16.219 2°53.997 6.9 5 1.8 101540 43
2011-02-21 08:14:42 51°16.22 2°53.997 6.4 6 1.8 101540 43
2011-02-21 08:14:47 51°16.222 2°53.997 6.3 3 1.7 101540 42
2011-02-21 08:14:52 51°16.223 2°53.997 6.7 3 1.7 101540 42
2011-02-21 08:14:57 51°16.224 2°53.997 7.4 2 1.8 101540 43
2011-02-21 08:15:02 51°16.226 2°53.998 9 359 1.8 101540 43
2011-02-21 08:15:07 51°16.227 2°53.999 8.5 359 1.8 101540 44
2011-02-21 08:15:11 51°16.228 2°54 6.8 360 1.8 101540 44
2011-02-21 08:15:17 51°16.229 2°54.001 6.4 357 1.8 101530 44
2011-02-21 08:15:22 51°16.23 2°54.002 6.8 355 1.8 101530 44
2011-02-21 08:15:27 51°16.231 2°54.003 6.7 355 1.8 101540 44
2011-02-21 08:15:32 51°16.232 2°54.004 7.2 353 1.8 101540 44
2011-02-21 08:15:37 51°16.233 2°54.005 8.7 354 1.8 101530 44
2011-02-21 08:15:42 51°16.234 2°54.006 7.9 351 1.8 101530 44
2011-02-21 08:15:47 51°16.235 2°54.006 7.1 355 1.8 101540 43
2011-02-21 08:15:52 51°16.235 2°54.007 6.9 356 1.8 101540 43
2011-02-21 08:15:57 51°16.236 2°54.006 7.2 356 1.8 101540 43
2011-02-21 08:16:02 51°16.236 2°54.006 7.8 355 1.8 101540 43
2011-02-21 08:16:07 51°16.237 2°54.005 7.3 355 1.8 101540 44
2011-02-21 08:16:11 51°16.237 2°54.004 7.2 356 1.8 101540 44
2011-02-21 08:16:17 51°16.237 2°54.003 7 357 1.8 101530 43
2011-02-21 08:16:22 51°16.237 2°54.001 6.3 358 1.8 101530 43
2011-02-21 08:16:27 51°16.237 2°53.999 7.3 355 1.8 101530 44
2011-02-21 08:16:32 51°16.237 2°53.997 5.9 360 1.8 101530 44
2011-02-21 08:16:37 51°16.237 2°53.994 7.4 359 1.8 101530 43
2011-02-21 08:16:42 51°16.236 2°53.991 5.8 356 1.8 101530 43
2011-02-21 08:16:47 51°16.236 2°53.988 6.5 357 1.8 101540 44
2011-02-21 08:16:52 51°16.236 2°53.986 7.2 360 1.8 101540 44
2011-02-21 08:16:57 51°16.236 2°53.983 6.7 3 1.8 101540 43
2011-02-21 08:17:02 51°16.236 2°53.981 4.6 5 1.8 101540 43
2011-02-21 08:17:07 51°16.235 2°53.978 6.4 2 1.8 101540 45
2011-02-21 08:17:11 51°16.235 2°53.976 7.4 2 1.8 101540 45
2011-02-21 08:17:17 51°16.235 2°53.973 7.6 -999 1.8 101540 43
2011-02-21 08:17:22 51°16.235 2°53.97 7.4 360 1.8 101540 43
2011-02-21 08:17:27 51°16.235 2°53.968 6.2 359 1.9 101540 45
2011-02-21 08:17:32 51°16.235 2°53.965 4.9 6 1.9 101540 45
2011-02-21 08:17:37 51°16.234 2°53.962 4.9 2 1.8 101540 43
2011-02-21 08:17:42 51°16.234 2°53.96 5.7 3 1.8 101540 43
2011-02-21 08:17:47 51°16.234 2°53.957 6.6 3 1.9 101540 44
2011-02-21 08:17:51 51°16.234 2°53.955 7.2 4 1.9 101540 44
2011-02-21 08:17:57 51°16.234 2°53.951 5.9 5 1.9 101530 45
2011-02-21 08:18:02 51°16.234 2°53.948 6.3 6 1.9 101530 45
2011-02-21 08:18:07 51°16.233 2°53.946 7.5 5 1.9 101540 45
2011-02-21 08:18:12 51°16.233 2°53.943 6.9 7 1.9 101540 45
2011-02-21 08:18:17 51°16.234 2°53.94 8 7 1.9 101530 45
2011-02-21 08:18:22 51°16.234 2°53.937 6.7 9 1.9 101530 45
2011-02-21 08:18:27 51°16.234 2°53.935 8.4 8 1.8 101540 42
2011-02-21 08:18:32 51°16.235 2°53.933 7.6 7 1.8 101540 42
2011-02-21 08:18:37 51°16.236 2°53.931 6.9 8 1.8 101530 43
2011-02-21 08:18:42 51°16.236 2°53.929 8.2 7 1.8 101530 43
2011-02-21 08:18:47 51°16.237 2°53.927 7.8 8 1.8 101530 43
2011-02-21 08:18:52 51°16.237 2°53.925 8 8 1.8 101530 43
2011-02-21 08:18:57 51°16.238 2°53.923 6.8 7 1.8 101530 44
2011-02-21 08:19:02 51°16.239 2°53.922 5.9 7 1.8 101530 44
2011-02-21 08:19:07 51°16.24 2°53.92 7.5 6 1.8 101530 43
2011-02-21 08:19:12 51°16.242 2°53.919 6.2 7 1.8 101530 43
2011-02-21 08:19:17 51°16.243 2°53.918 6.8 5 1.8 101530 45
2011-02-21 08:19:22 51°16.244 2°53.917 6.8 6 1.8 101530 45
2011-02-21 08:19:27 51°16.246 2°53.916 7.9 6 1.8 101530 43
2011-02-21 08:19:32 51°16.247 2°53.915 6.4 7 1.8 101530 43
2011-02-21 08:19:37 51°16.248 2°53.914 5.8 7 1.8 101530 43
2011-02-21 08:19:42 51°16.25 2°53.914 7.4 5 1.8 101530 43
2011-02-21 08:19:47 51°16.252 2°53.913 5.6 7 1.8 101540 44
2011-02-21 08:19:52 51°16.254 2°53.912 6.4 5 1.8 101540 44
2011-02-21 08:19:57 51°16.255 2°53.912 6.3 4 1.8 101530 43
2011-02-21 08:20:02 51°16.257 2°53.911 6.9 7 1.8 101530 43
2011-02-21 08:20:07 51°16.259 2°53.91 5.6 8 1.8 101530 44
2011-02-21 08:20:12 51°16.261 2°53.911 4.9 5 1.8 101530 44
2011-02-21 08:20:17 51°16.263 2°53.91 7.7 -999 1.8 101530 43
2011-02-21 08:20:22 51°16.265 2°53.91 5.3 4 1.8 101530 43
2011-02-21 08:20:27 51°16.267 2°53.911 6.7 2 1.8 101520 44
2011-02-21 08:20:31 51°16.269 2°53.911 7.4 7 1.8 101520 44
2011-02-21 08:20:37 51°16.272 2°53.91 7.5 8 1.8 101530 43
2011-02-21 08:20:42 51°16.275 2°53.91 7.5 9 1.8 101530 43
2011-02-21 08:20:47 51°16.277 2°53.91 7.3 12 1.8 101530 44
2011-02-21 08:20:52 51°16.281 2°53.91 7.8 14 1.8 101530 44
2011-02-21 08:20:56 51°16.283 2°53.909 7.1 16 1.8 101530 43
2011-02-21 08:21:02 51°16.288 2°53.908 7.4 15 1.8 101530 43
2011-02-21 08:21:07 51°16.292 2°53.907 7.1 20 1.8 101520 42
2011-02-21 08:21:11 51°16.295 2°53.905 6.5 21 1.8 101520 42
2011-02-21 08:21:17 51°16.3 2°53.901 6.1 20 1.8 101520 44
2011-02-21 08:21:22 51°16.305 2°53.898 6.3 20 1.8 101520 44
2011-02-21 08:21:27 51°16.31 2°53.894 7.3 22 1.8 101530 43
2011-02-21 08:21:32 51°16.315 2°53.888 6.7 27 1.8 101530 43
2011-02-21 08:21:37 51°16.32 2°53.882 5.5 30 1.8 101530 43
2011-02-21 08:21:42 51°16.325 2°53.875 6.9 33 1.8 101530 43
2011-02-21 08:21:47 51°16.329 2°53.866 5.7 30 1.8 101530 43
2011-02-21 08:21:52 51°16.335 2°53.857 5.7 32 1.8 101530 43
2011-02-21 08:21:57 51°16.34 2°53.846 4.8 31 1.9 101530 44
2011-02-21 08:22:01 51°16.345 2°53.837 5 32 1.9 101530 44
2011-02-21 08:22:07 51°16.354 2°53.822 5.3 31 1.9 101530 43
2011-02-21 08:22:11 51°16.36 2°53.811 5.1 31 1.9 101530 43
2011-02-21 08:22:17 51°16.37 2°53.793 4.7 24 1.8 101530 45
2011-02-21 08:22:22 51°16.379 2°53.778 4.8 29 1.8 101530 45
2011-02-21 08:22:27 51°16.388 2°53.761 4.7 26 1.9 101540 44
2011-02-21 08:22:32 51°16.397 2°53.744 4.4 27 1.9 101540 44
2011-02-21 08:22:37 51°16.407 2°53.726 3.9 30 1.8 101540 44
2011-02-21 08:22:42 51°16.418 2°53.707 4 26 1.8 101540 44
2011-02-21 08:22:47 51°16.428 2°53.688 3.6 24 1.9 101530 45
2011-02-21 08:22:52 51°16.439 2°53.668 3.7 27 1.9 101530 45
2011-02-21 08:22:57 51°16.45 2°53.647 2.2 28 1.8 101530 44
2011-02-21 08:23:02 51°16.461 2°53.626 2.9 23 1.8 101530 44
2011-02-21 08:23:07 51°16.473 2°53.605 2.7 15 1.8 101540 45
2011-02-21 08:23:12 51°16.485 2°53.584 2.9 16 1.8 101540 45
2011-02-21 08:23:17 51°16.497 2°53.562 3.5 19 1.8 101540 43
2011-02-21 08:23:22 51°16.509 2°53.541 2.5 18 1.8 101540 43
2011-02-21 08:23:27 51°16.521 2°53.52 3.5 18 1.8 101540 43
2011-02-21 08:23:32 51°16.534 2°53.498 1.5 14 1.8 101540 43
2011-02-21 08:23:37 51°16.546 2°53.477 4.1 13 1.8 101540 43
2011-02-21 08:23:42 51°16.559 2°53.455 5 16 1.8 101540 43
2011-02-21 08:23:47 51°16.572 2°53.433 3.9 17 1.8 101540 44
2011-02-21 08:23:52 51°16.584 2°53.412 4.3 12 1.8 101540 44
2011-02-21 08:23:57 51°16.597 2°53.39 4 11 1.8 101540 44
2011-02-21 08:24:02 51°16.61 2°53.369 3.7 12 1.8 101540 44
2011-02-21 08:24:07 51°16.622 2°53.347 4.2 16 1.9 101540 45
2011-02-21 08:24:12 51°16.635 2°53.326 4 13 1.9 101540 45
2011-02-21 08:24:17 51°16.648 2°53.304 3.3 8 1.9 101550 45
2011-02-21 08:24:22 51°16.661 2°53.283 4.2 10 1.9 101550 45
2011-02-21 08:24:27 51°16.674 2°53.262 4.1 8 1.9 101540 43
2011-02-21 08:24:32 51°16.687 2°53.241 3.9 13 1.9 101540 43
2011-02-21 08:24:37 51°16.7 2°53.22 3.6 7 1.9 101540 43
2011-02-21 08:24:42 51°16.713 2°53.2 5.2 8 1.9 101540 43
2011-02-21 08:24:47 51°16.727 2°53.18 4.5 13 1.9 101540 45
2011-02-21 08:24:52 51°16.74 2°53.16 4.2 15 1.9 101540 45
2011-02-21 08:24:57 51°16.754 2°53.142 3.9 11 1.9 101540 43
2011-02-21 08:25:02 51°16.768 2°53.123 3.5 7 1.9 101540 43
2011-02-21 08:25:07 51°16.782 2°53.105 4.2 14 1.9 101540 43
2011-02-21 08:25:11 51°16.794 2°53.09 4.4 10 1.9 101540 43
2011-02-21 08:25:17 51°16.811 2°53.069 3.5 4 1.9 101550 45
2011-02-21 08:25:22 51°16.824 2°53.05 5.1 14 1.9 101550 45
2011-02-21 08:25:27 51°16.838 2°53.032 4.9 17 1.9 101540 43
2011-02-21 08:25:32 51°16.85 2°53.014 3.9 19 1.9 101540 43
2011-02-21 08:25:37 51°16.863 2°52.996 4.4 22 1.8 101540 43
2011-02-21 08:25:42 51°16.875 2°52.978 3.5 20 1.8 101540 43
2011-02-21 08:25:47 51°16.886 2°52.958 2.3 16 1.9 101550 43
2011-02-21 08:25:52 51°16.897 2°52.939 3.1 22 1.9 101550 43
2011-02-21 08:25:57 51°16.908 2°52.919 2.7 21 1.9 101550 45
2011-02-21 08:26:02 51°16.918 2°52.899 2.7 21 1.9 101550 45
2011-02-21 08:26:07 51°16.929 2°52.878 2 20 1.9 101550 43
2011-02-21 08:26:12 51°16.941 2°52.859 1.5 22 1.9 101550 43
2011-02-21 08:26:17 51°16.953 2°52.839 1.9 18 1.9 101550 45
2011-02-21 08:26:22 51°16.965 2°52.82 2.4 14 1.9 101550 45
2011-02-21 08:26:27 51°16.978 2°52.802 2.9 8 1.9 101550 44
2011-02-21 08:26:32 51°16.992 2°52.785 3.8 8 1.9 101550 44
2011-02-21 08:26:37 51°17.007 2°52.771 4 4 1.9 101560 43